»·PEaware :: N27JP KLAX-KSAN

N27JP :: KLAX-KSAN

FLIGHT INFORMATION

Flight Status: Arrived
Operator: Privately registered:
United States
More flights under this callsign
Pilot: Weston J. (31543)
Aircraft: CESSNA 172 SKYHAWK
(C172)
More flights by this aircraft type
Origin: KLAX Los Angeles Intl
United States
Destination: KSAN San Diego Intl-Lindbergh
United States
More flights between these airports :: More routes between these airports
Route:
File this flight plan on PilotEdge
Remarks:
Altitude:
(Current/Filed)
5,500ft
Speed:
(Current/Filed)
110kts
Departed: 10-Oct-20 02:37 PM
Arrived: 10-Oct-20 03:59 PM
Distance/Time
Traveled:
6795nm/1:22
Distance/Time
To Go:
Arrived

Flight Plot

Page will automatically refresh every two minutes.


Map Options




Map Legend


Flown Route
Filed Route
Departure Airport
Arrival Airport
Navaid (VOR, NDB)
Fix

Horizontal Profiles

Position Reports

Time Latitude Longitude Heading Altitude Ground
Speed
10-Oct-20 14:20 33.933717 -118.389781 179 120ft 0kts
10-Oct-20 14:21 33.933717 -118.389781 179 120ft 0kts
10-Oct-20 14:22 33.933717 -118.389781 179 120ft 0kts
10-Oct-20 14:23 33.933717 -118.389781 179 120ft 0kts
10-Oct-20 14:24 33.933717 -118.389781 179 120ft 0kts
10-Oct-20 14:25 33.933717 -118.389781 179 120ft 0kts
10-Oct-20 14:26 33.933717 -118.389781 179 120ft 0kts
10-Oct-20 14:27 33.933717 -118.389781 179 120ft 0kts
10-Oct-20 14:28 33.933717 -118.389781 179 120ft 0kts
10-Oct-20 14:29 33.933865 -118.389782 179 120ft 0kts
10-Oct-20 14:30 33.934291 -118.389729 343 120ft 5kts
10-Oct-20 14:31 33.935545 -118.388533 82 120ft 9kts
10-Oct-20 14:32 33.935976 -118.384254 83 120ft 15kts
10-Oct-20 14:34 33.936473 -118.382795 358 120ft 0kts
10-Oct-20 14:35 33.936473 -118.382795 358 120ft 0kts
10-Oct-20 14:36 33.936503 -118.382796 358 120ft 2kts
10-Oct-20 14:37 33.936072 -118.394840 261 224ft 83kts
10-Oct-20 14:38 33.932031 -118.421680 260 978ft 81kts
10-Oct-20 14:39 33.917398 -118.427487 153 1715ft 79kts
10-Oct-20 14:40 33.898311 -118.416149 156 2426ft 79kts
10-Oct-20 14:41 33.876772 -118.405202 159 3012ft 92kts
10-Oct-20 14:42 33.851743 -118.395377 166 3484ft 104kts
10-Oct-20 14:43 33.820979 -118.385816 166 3499ft 118kts
10-Oct-20 14:44 33.796133 -118.368021 119 3500ft 120kts
10-Oct-20 14:50 33.933717 -118.389781 179 120ft 0kts
10-Oct-20 14:50 33.933717 -118.389781 179 120ft 0kts
10-Oct-20 14:52 33.933717 -118.389781 179 120ft 0kts
10-Oct-20 14:52 33.933717 -118.389781 179 120ft 0kts
10-Oct-20 14:53 33.933717 -118.389781 179 120ft 0kts
10-Oct-20 14:54 33.933770 -118.389782 179 120ft 2kts
10-Oct-20 14:55 33.934623 -118.389779 359 120ft 6kts
10-Oct-20 14:56 33.935660 -118.387379 82 120ft 15kts
10-Oct-20 14:57 33.936248 -118.382868 37 120ft 10kts
10-Oct-20 14:58 33.936486 -118.382794 353 120ft 0kts
10-Oct-20 14:59 33.936478 -118.391962 263 164ft 83kts
10-Oct-20 15:00 33.933313 -118.420315 263 906ft 84kts
10-Oct-20 15:01 33.918000 -118.427962 155 1640ft 95kts
10-Oct-20 15:02 33.892197 -118.412056 159 2198ft 110kts
10-Oct-20 15:03 33.862837 -118.396981 152 2511ft 124kts
10-Oct-20 15:04 33.830415 -118.383804 172 2484ft 103kts
10-Oct-20 15:05 33.802412 -118.378236 155 3153ft 103kts
10-Oct-20 15:06 33.778389 -118.355382 130 3472ft 122kts
10-Oct-20 15:07 33.760308 -118.318550 112 3491ft 130kts
10-Oct-20 15:08 33.747766 -118.280770 112 3578ft 107kts
10-Oct-20 15:09 33.736501 -118.247105 112 4126ft 109kts
10-Oct-20 15:10 33.722858 -118.214444 122 4642ft 109kts
10-Oct-20 15:11 33.706498 -118.183439 122 5128ft 110kts
10-Oct-20 15:12 33.693898 -118.149323 112 5482ft 120kts
10-Oct-20 15:13 33.680535 -118.110309 112 5489ft 128kts
10-Oct-20 15:14 33.666905 -118.070452 112 5491ft 129kts
10-Oct-20 15:15 33.654124 -118.030270 102 5492ft 129kts
10-Oct-20 15:16 33.643874 -117.989854 121 5490ft 121kts
10-Oct-20 15:17 33.626518 -117.957207 123 5490ft 113kts
10-Oct-20 15:18 33.609514 -117.925167 122 5491ft 113kts
10-Oct-20 15:19 33.588058 -117.898177 142 5491ft 113kts
10-Oct-20 15:20 33.566188 -117.871208 132 5491ft 113kts
10-Oct-20 15:21 33.545076 -117.842999 132 5490ft 113kts
10-Oct-20 15:22 33.524408 -117.814640 123 5492ft 113kts
10-Oct-20 15:23 33.507739 -117.782573 122 5491ft 113kts
10-Oct-20 15:24 33.487945 -117.753255 132 5490ft 113kts
10-Oct-20 15:25 33.466841 -117.725169 132 5491ft 113kts
10-Oct-20 15:26 33.445761 -117.697119 132 5490ft 113kts
10-Oct-20 15:27 33.424660 -117.669008 132 5491ft 113kts
10-Oct-20 15:28 33.403650 -117.640990 132 5491ft 113kts
10-Oct-20 15:29 33.385444 -117.610256 122 5490ft 113kts
10-Oct-20 15:30 33.368784 -117.578124 122 5490ft 113kts
10-Oct-20 15:31 33.351941 -117.546243 124 5491ft 113kts
10-Oct-20 15:32 33.331774 -117.517409 136 5490ft 113kts
10-Oct-20 15:33 33.309146 -117.491211 136 5490ft 113kts
10-Oct-20 15:34 33.284902 -117.467165 146 5472ft 113kts
10-Oct-20 15:35 33.258875 -117.446153 146 5472ft 113kts
10-Oct-20 15:36 33.232510 -117.425789 148 5473ft 112kts
10-Oct-20 15:37 33.206425 -117.404716 146 5472ft 112kts
10-Oct-20 15:38 33.180429 -117.383763 147 5472ft 113kts
10-Oct-20 15:39 33.156204 -117.365002 150 5227ft 102kts
10-Oct-20 15:40 33.131588 -117.347785 150 4420ft 101kts
10-Oct-20 15:41 33.107309 -117.331173 151 3695ft 97kts
10-Oct-20 15:42 33.084783 -117.316176 154 3475ft 98kts
10-Oct-20 15:43 33.059309 -117.302539 157 3473ft 103kts
10-Oct-20 15:44 33.032115 -117.291724 166 3472ft 103kts
10-Oct-20 15:45 33.004272 -117.283286 167 3471ft 102kts
10-Oct-20 15:46 32.976351 -117.275889 169 3472ft 102kts
10-Oct-20 15:47 32.948310 -117.269085 169 3472ft 102kts
10-Oct-20 15:48 32.920315 -117.262259 169 3472ft 102kts
10-Oct-20 15:49 32.892216 -117.255611 170 3472ft 102kts
10-Oct-20 15:50 32.863932 -117.249315 170 3471ft 104kts
10-Oct-20 15:51 32.835424 -117.242957 170 3470ft 103kts
10-Oct-20 15:52 32.806700 -117.234403 154 3171ft 120kts
10-Oct-20 15:53 32.779649 -117.215698 148 2041ft 108kts
10-Oct-20 15:54 32.763125 -117.189246 103 958ft 96kts
10-Oct-20 15:55 32.757092 -117.163159 111 861ft 80kts
10-Oct-20 15:56 32.740618 -117.153727 196 847ft 81kts
10-Oct-20 15:57 32.729205 -117.171916 285 216ft 82kts
10-Oct-20 15:58 32.733322 -117.187953 318 17ft 22kts
10-Oct-20 15:59 32.734832 -117.187761 16 16ft 15kts
10-Oct-20 16:00 0.000408 0.013975 0 3ft 0kts
10-Oct-20 16:01 0.000408 0.013975 0 3ft 0kts
10-Oct-20 16:02 0.000408 0.013975 0 3ft 0kts
10-Oct-20 16:03 0.000408 0.013975 0 3ft 0kts
10-Oct-20 16:04 0.000408 0.013975 0 3ft 0kts
10-Oct-20 16:05 0.000408 0.013975 0 3ft 0kts
10-Oct-20 16:06 0.000408 0.013975 0 3ft 0kts
10-Oct-20 16:07 0.000408 0.013975 0 3ft 0kts
10-Oct-20 16:08 0.000408 0.013975 0 3ft 0kts
10-Oct-20 16:09 0.000408 0.013975 0 3ft 0kts
10-Oct-20 16:10 0.000408 0.013975 0 3ft 0kts
10-Oct-20 16:11 0.000408 0.013975 0 3ft 0kts
10-Oct-20 16:12 0.000408 0.013975 0 3ft 0kts

Navigation Log

Ident Type
Flight plan parsing failed, navigation log unavailable